Terminal Aerodrome Forecast
Issued by NWS Sioux Falls, SD

Home | Current Version | Previous Version | Text Only | Print | Product List | Glossary On
Versions: 1 2 3 4 5 6 7 8 9 10 11 12 13 14 15 16 17 18
000
FTUS43 KFSD 181731
TAFHON
TAF
KHON 181731Z 1818/1918 23006KT P6SM SCT100
     FM182100 20008KT P6SM OVC080
     FM190100 28013KT P6SM BKN025
     FM190400 32018G26KT P6SM OVC025
     FM191200 31012KT P6SM SCT030=

USA.gov is the U.S. government's official web portal to all federal, state and local government web resources and services.